Back to top

Cheyenne, WY weather

Cheyenne Regional/Jerry Olson Field, Cheyenne, WY: 6/27/2022 21:53
Visibility10 statute milesclear sky
View 7-Day Forecast
Area Summary
Sky/CloudsSky Clear
Weather [last 24 hours]None [rain began 17:14 ended 17:34 began 17:51; thunderstorm began 18:00 ended 18:15; rain ended 18:22, thunderstorm began 18:00 ended 18:15 ]
Pressure30.35 in.Hg (1028 hPa)
Dew Point43 °F (6.1 °C)
Relative Humidity 48 %
Last 24-Hour Precip.Trace
Reading TimePrecipitation
6-hr ending 6/27@17:53Trace
Temperature63 °F (17.2 °C)red thermometer
Reading TimeMinimum to Maximum Temperature
6-hr ending 6/27@17:5377 °F to 86 °F (25 °C to 30 °C)
6-hr ending 6/27@11:5348 °F to 81 °F (8.9 °C to 27.2 °C)
6-hr ending 6/27@05:5346.9 °F to 57 °F (8.3 °C to 13.9 °C)
6-hr ending 6/26@23:5357 °F to 66 °F (13.9 °C to 18.9 °C)
24-hr ending 6/27@00:5351.1 °F to 66.9 °F (10.6 °C to 19.4 °C)
Wind15 MPH (13 KT) green arrow pointing 180 degrees
Wind FromSouth (170 Degrees)
Rolling 24-hr Peak Wind36.8 MPH (32 KT) on 6/27@17:50
Rolling 24-hr Peak Wind FromNorth (010 Degrees)
Twilight Begins04:56Sunshine Yesterday
Sunrise05:30N/A
Sunset20:35
Twilight Ends21:08
METARKCYS 280353Z AUTO 17013KT 10SM CLR 17/06 A3035 RMK AO2 SLP193 T01720061
Tags: